Time;durP1;ratioP1;P1;durP2;ratioP2;P2;SDS_P1;SDS_P2;PMS_P1;PMS_P2;Temp;Humidity;BMP_temperature;BMP_pressure;BME280_temperature;BME280_humidity;BME280_pressure;Samples;Min_cycle;Max_cycle;Signal;HPM_P1;HPM_P2
2021/01/19 00:00:10;;;;;;;20.30;5.65;;;;;;;5.69;100.00;101275.53;5089537;28;20028;-71
2021/01/19 00:02:39;;;;;;;15.88;5.63;;;;;;;5.70;100.00;101274.59;5088365;28;20085;-71
2021/01/19 00:05:06;;;;;;;18.58;5.88;;;;;;;5.74;100.00;101270.03;5089080;28;20027;-71
2021/01/19 00:07:31;;;;;;;21.17;5.97;;;;;;;5.82;100.00;101259.09;5079434;28;20024;-71
2021/01/19 00:09:57;;;;;;;25.02;5.93;;;;;;;5.79;100.00;101261.91;5090896;28;20032;-71
2021/01/19 00:12:22;;;;;;;24.83;5.90;;;;;;;5.74;100.00;101247.88;5090688;28;20024;-71
2021/01/19 00:14:48;;;;;;;20.05;5.13;;;;;;;5.72;100.00;101252.38;5081980;28;20526;-71
2021/01/19 00:17:14;;;;;;;20.73;5.85;;;;;;;5.79;100.00;101246.78;5092155;28;20537;-71
2021/01/19 00:19:39;;;;;;;19.23;4.80;;;;;;;5.66;100.00;101240.16;5085791;28;20043;-71
2021/01/19 00:22:04;;;;;;;26.98;5.80;;;;;;;5.62;100.00;101233.19;5095205;28;20059;-71
2021/01/19 00:24:30;;;;;;;18.45;4.95;;;;;;;5.68;100.00;101233.81;5079833;28;20085;-71
2021/01/19 00:26:55;;;;;;;18.05;4.43;;;;;;;5.66;100.00;101230.38;5081425;28;20012;-71
2021/01/19 00:29:21;;;;;;;16.23;5.00;;;;;;;5.69;100.00;101224.91;5092452;28;20028;-71
2021/01/19 00:31:46;;;;;;;18.42;4.15;;;;;;;5.73;100.00;101215.03;5078241;28;20506;-71
2021/01/19 00:34:11;;;;;;;23.65;4.97;;;;;;;5.70;100.00;101215.13;5091834;28;20035;-71
2021/01/19 00:36:37;;;;;;;13.80;4.00;;;;;;;5.75;100.00;101215.84;5077727;28;20439;-71
2021/01/19 00:39:03;;;;;;;13.45;3.75;;;;;;;5.72;100.00;101207.09;5096579;28;20020;-71
2021/01/19 00:41:28;;;;;;;17.52;3.47;;;;;;;5.68;100.00;101216.97;5077300;28;20032;-71
2021/01/19 00:43:54;;;;;;;16.55;4.55;;;;;;;5.75;100.00;101206.97;5093065;28;20527;-71
2021/01/19 00:46:19;;;;;;;16.63;3.67;;;;;;;5.74;100.00;101202.59;5090306;28;20047;-72
2021/01/19 00:48:45;;;;;;;18.48;3.88;;;;;;;5.77;100.00;101200.69;5091880;28;20439;-71
2021/01/19 00:51:10;;;;;;;16.23;3.80;;;;;;;5.72;100.00;101189.31;5089330;28;20397;-71
2021/01/19 00:53:36;;;;;;;11.75;3.45;;;;;;;5.74;99.68;101191.94;5089909;28;20031;-71
2021/01/19 00:56:02;;;;;;;14.07;3.15;;;;;;;5.74;99.56;101195.44;5091811;28;20031;-71
2021/01/19 00:58:28;;;;;;;15.45;3.38;;;;;;;5.73;99.36;101188.41;5069275;28;20065;-71
2021/01/19 01:00:55;;;;;;;20.92;3.50;;;;;;;5.70;98.92;101193.84;5072226;28;20828;-71
2021/01/19 01:03:20;;;;;;;9.18;2.83;;;;;;;5.63;99.29;101182.53;5091165;28;20038;-71
2021/01/19 01:05:47;;;;;;;15.68;2.95;;;;;;;5.72;98.52;101184.00;5093457;28;20623;-71
2021/01/19 01:08:12;;;;;;;10.93;3.35;;;;;;;5.70;98.39;101173.41;5090637;28;20036;-71
2021/01/19 01:10:38;;;;;;;12.43;3.90;;;;;;;5.62;99.03;101170.13;5084312;28;20039;-71
2021/01/19 01:13:03;;;;;;;15.43;3.55;;;;;;;5.62;98.99;101170.13;5091338;28;20107;-71
2021/01/19 01:15:33;;;;;;;13.20;3.03;;;;;;;5.69;98.17;101171.66;5091451;28;20475;-71
2021/01/19 01:17:59;;;;;;;13.30;3.20;;;;;;;5.73;97.67;101166.22;5075778;28;20136;-72
2021/01/19 01:20:24;;;;;;;13.57;3.13;;;;;;;5.62;98.80;101159.47;5089726;28;20462;-71
2021/01/19 01:22:50;;;;;;;11.27;3.10;;;;;;;5.75;97.26;101156.38;5090951;28;20604;-71
2021/01/19 01:25:16;;;;;;;15.18;3.35;;;;;;;5.74;97.48;101159.97;5092682;28;20115;-71
2021/01/19 01:27:43;;;;;;;10.20;3.17;;;;;;;5.61;98.24;101156.91;5089740;28;20101;-71
2021/01/19 01:30:11;;;;;;;12.98;2.47;;;;;;;5.72;96.68;101165.34;5090108;28;20047;-71
2021/01/19 01:32:40;;;;;;;11.68;3.00;;;;;;;5.76;95.89;101160.78;5091701;28;20024;-71
2021/01/19 01:35:07;;;;;;;7.53;2.72;;;;;;;5.66;96.14;101150.47;5089914;28;20047;-72
2021/01/19 01:37:32;;;;;;;14.98;2.78;;;;;;;5.57;96.53;101155.25;5091216;28;20181;-71
2021/01/19 01:39:57;;;;;;;17.65;3.00;;;;;;;5.66;95.84;101149.59;5091494;28;20533;-71
2021/01/19 01:42:24;;;;;;;14.77;2.72;;;;;;;5.68;95.29;101143.28;5085277;28;20032;-71
2021/01/19 01:44:51;;;;;;;12.48;2.47;;;;;;;5.69;94.88;101145.03;5089414;28;20533;-71
2021/01/19 01:47:21;;;;;;;20.50;3.35;;;;;;;5.64;95.03;101131.00;5111492;27;20081;-71
2021/01/19 01:49:48;;;;;;;11.45;3.13;;;;;;;5.66;94.63;101137.16;5091156;28;20038;-71
2021/01/19 01:52:15;;;;;;;7.93;2.33;;;;;;;5.61;94.87;101131.16;5088921;28;20509;-71
2021/01/19 01:54:41;;;;;;;11.35;3.00;;;;;;;5.61;93.90;101124.94;5089835;28;20035;-71
2021/01/19 01:57:06;;;;;;;9.15;1.98;;;;;;;5.66;93.42;101123.84;5089616;28;20047;-71
2021/01/19 01:59:33;;;;;;;11.18;3.92;;;;;;;5.61;93.21;101115.16;5091615;28;20028;-71
2021/01/19 02:02:09;;;;;;;13.23;2.88;;;;;;;5.53;92.56;101111.91;5089612;28;20024;-71
2021/01/19 02:04:35;;;;;;;8.77;2.42;;;;;;;5.54;93.66;101096.81;5090562;28;20125;-72
2021/01/19 02:07:05;;;;;;;14.27;2.55;;;;;;;5.53;92.80;101103.94;5089558;28;20048;-71
2021/01/19 02:09:34;;;;;;;12.27;3.70;;;;;;;5.65;91.62;101086.63;5090556;28;20493;-71
2021/01/19 02:12:06;;;;;;;8.95;2.13;;;;;;;5.62;91.52;101087.59;5090375;28;20024;-71
2021/01/19 02:14:36;;;;;;;10.82;2.42;;;;;;;5.50;92.25;101077.41;5074913;28;20532;-72
2021/01/19 02:17:23;;;;;;;20.80;3.10;;;;;;;5.53;90.87;101071.09;5090073;28;20036;-71
2021/01/19 02:20:13;;;;;;;13.60;2.70;;;;;;;5.53;92.25;101068.44;5082220;28;20498;-71
2021/01/19 02:23:06;;;;;;;10.82;2.40;;;;;;;5.38;92.38;101059.22;5082151;28;20039;-71
2021/01/19 02:25:47;;;;;;;;;;;;;;;5.39;92.08;101054.78;5075077;28;20039;-71
2021/01/19 02:28:50;;;;;;;8.35;2.28;;;;;;;5.39;92.17;101031.69;5079312;28;19916;-72
2021/01/19 02:31:55;;;;;;;11.80;4.07;;;;;;;5.33;92.56;101018.63;5061779;28;20127;-71
2021/01/19 02:34:41;;;;;;;15.25;2.67;;;;;;;5.28;93.02;101020.59;5066731;28;20024;-71
2021/01/19 02:37:11;;;;;;;11.27;2.97;;;;;;;5.29;92.85;101011.69;5085296;28;20605;-71
2021/01/19 02:39:55;;;;;;;13.45;2.30;;;;;;;5.29;92.67;101001.03;5089121;28;20036;-71
2021/01/19 02:42:24;;;;;;;11.23;2.63;;;;;;;5.29;92.32;100996.59;5084513;28;20032;-71
2021/01/19 02:44:51;;;;;;;10.63;3.03;;;;;;;5.20;92.96;100988.06;5090375;28;20036;-71
2021/01/19 02:47:18;;;;;;;16.00;3.17;;;;;;;5.28;92.67;100983.31;5089748;28;20046;-72
2021/01/19 02:49:43;;;;;;;9.95;2.30;;;;;;;5.25;93.02;100983.44;5073416;28;20547;-71
2021/01/19 02:52:10;;;;;;;13.13;2.90;;;;;;;5.17;92.82;100969.56;5087207;28;20066;-71
2021/01/19 02:54:38;;;;;;;11.82;2.97;;;;;;;5.20;92.89;100974.75;5090672;28;20031;-71
2021/01/19 02:57:33;;;;;;;18.02;3.47;;;;;;;5.20;93.33;100953.47;5088144;28;20036;-72
2021/01/19 03:00:12;;;;;;;13.63;2.40;;;;;;;5.25;91.77;100947.03;5086860;28;21725;-71
2021/01/19 03:02:40;;;;;;;11.82;2.40;;;;;;;5.23;92.82;100948.91;5087541;28;20505;-71
2021/01/19 03:05:09;;;;;;;10.90;3.33;;;;;;;5.21;92.77;100944.56;5089508;28;20036;-72
2021/01/19 03:07:38;;;;;;;11.85;3.72;;;;;;;5.21;93.12;100940.13;5088504;28;20036;-71
2021/01/19 03:10:05;;;;;;;7.07;2.75;;;;;;;5.13;93.94;100931.53;5087101;28;20047;-71
2021/01/19 03:12:33;;;;;;;11.55;3.03;;;;;;;5.26;93.93;100929.28;5069647;28;20077;-71
2021/01/19 03:14:59;;;;;;;9.43;2.50;;;;;;;5.11;94.46;100925.44;5086408;28;20059;-72
2021/01/19 03:17:24;;;;;;;15.38;2.97;;;;;;;5.15;94.62;100918.19;5100256;28;20107;-71
2021/01/19 03:19:50;;;;;;;14.75;3.58;;;;;;;5.11;94.43;100924.56;5089738;28;20581;-71
2021/01/19 03:22:15;;;;;;;13.00;3.08;;;;;;;5.25;94.03;100909.78;5087395;28;20501;-71
2021/01/19 03:24:41;;;;;;;17.08;3.40;;;;;;;5.21;94.12;100909.97;5071327;28;20028;-71
2021/01/19 03:27:08;;;;;;;15.18;3.25;;;;;;;5.26;94.45;100908.00;5088398;28;20027;-72
2021/01/19 03:29:34;;;;;;;13.50;2.90;;;;;;;5.19;94.83;100898.50;5089548;28;20089;-72
2021/01/19 03:32:00;;;;;;;16.20;3.83;;;;;;;5.16;94.83;100890.66;5088022;28;20028;-71
2021/01/19 03:34:27;;;;;;;13.45;3.42;;;;;;;5.19;95.53;100877.22;5076791;28;20032;-71
2021/01/19 03:36:53;;;;;;;16.70;3.58;;;;;;;5.23;95.27;100868.22;5091432;28;20398;-71
2021/01/19 03:39:19;;;;;;;12.60;2.97;;;;;;;5.14;95.91;100863.25;5089753;28;20043;-72
2021/01/19 03:41:45;;;;;;;17.70;3.45;;;;;;;5.16;95.68;100850.75;5070376;28;20164;-71
2021/01/19 03:44:10;;;;;;;15.18;4.28;;;;;;;5.24;95.51;100846.00;5075650;28;20565;-72
2021/01/19 03:46:35;;;;;;;17.08;3.28;;;;;;;5.22;95.57;100834.53;5089471;28;20031;-71
2021/01/19 03:49:01;;;;;;;20.45;3.55;;;;;;;5.24;95.45;100833.56;5087766;28;20541;-72
2021/01/19 03:51:27;;;;;;;22.17;4.13;;;;;;;5.25;96.21;100834.41;5100797;28;20047;-71
2021/01/19 03:53:53;;;;;;;17.85;3.80;;;;;;;5.19;96.39;100824.00;5074049;28;20016;-71
2021/01/19 03:56:19;;;;;;;18.85;3.42;;;;;;;5.25;95.87;100823.75;5099889;28;20032;-71
2021/01/19 03:58:45;;;;;;;19.15;4.63;;;;;;;5.20;96.58;100820.41;5087690;28;20035;-72
2021/01/19 04:01:10;;;;;;;13.88;3.70;;;;;;;5.35;96.17;100813.63;5070289;28;20036;-72
2021/01/19 04:03:35;;;;;;;18.08;3.03;;;;;;;5.23;97.12;100807.00;5088898;28;20043;-72
2021/01/19 04:06:01;;;;;;;11.45;2.67;;;;;;;5.23;97.50;100804.34;5070724;28;20104;-71
2021/01/19 04:08:26;;;;;;;12.55;4.38;;;;;;;5.32;96.71;100790.63;5088651;28;20070;-71
2021/01/19 04:10:52;;;;;;;14.07;3.17;;;;;;;5.27;96.54;100771.34;5083937;28;20367;-72
2021/01/19 04:13:18;;;;;;;14.60;2.90;;;;;;;5.39;96.98;100783.28;5072531;28;20096;-71
2021/01/19 04:15:44;;;;;;;17.27;3.53;;;;;;;5.38;97.93;100766.44;5089118;28;20032;-71
2021/01/19 04:18:10;;;;;;;11.32;3.22;;;;;;;5.41;97.59;100755.66;5088497;28;20039;-72
2021/01/19 04:20:35;;;;;;;12.18;3.33;;;;;;;5.40;97.60;100761.91;5067773;28;20028;-71
2021/01/19 04:23:01;;;;;;;9.65;2.45;;;;;;;5.28;98.16;100754.44;5089549;28;20421;-72
2021/01/19 04:25:27;;;;;;;14.05;3.78;;;;;;;5.47;97.92;100752.75;5086862;28;20032;-71
2021/01/19 04:27:53;;;;;;;10.73;2.72;;;;;;;5.39;98.72;100746.88;5084363;28;20020;-72
2021/01/19 04:30:19;;;;;;;15.82;2.92;;;;;;;5.38;99.06;100746.94;5087504;28;20512;-71
2021/01/19 04:32:48;;;;;;;16.98;3.30;;;;;;;5.39;99.83;100746.00;5090248;28;20032;-71
2021/01/19 04:35:14;;;;;;;14.55;2.55;;;;;;;5.36;99.41;100732.84;5088077;28;20020;-71
2021/01/19 04:37:39;;;;;;;16.23;2.75;;;;;;;5.41;99.19;100729.06;5071880;28;20523;-72
2021/01/19 04:40:06;;;;;;;18.58;3.72;;;;;;;5.42;99.88;100720.13;5088606;28;20038;-71
2021/01/19 04:42:37;;;;;;;9.43;2.55;;;;;;;5.25;100.00;100715.50;5071354;28;20032;-72
2021/01/19 04:45:08;;;;;;;11.95;3.03;;;;;;;5.39;100.00;100704.28;5086761;28;20679;-72
2021/01/19 04:47:34;;;;;;;18.45;2.47;;;;;;;5.34;100.00;100702.75;5089348;28;20028;-72
2021/01/19 04:50:04;;;;;;;19.67;3.53;;;;;;;5.31;100.00;100694.91;5088749;28;20038;-72
2021/01/19 04:52:32;;;;;;;12.07;2.80;;;;;;;5.35;100.00;100692.06;5084435;28;20090;-72
2021/01/19 04:55:02;;;;;;;18.58;3.95;;;;;;;5.40;100.00;100686.53;5090135;28;20596;-72
2021/01/19 04:57:30;;;;;;;17.30;3.35;;;;;;;5.34;100.00;100682.34;5093107;28;20043;-72
2021/01/19 05:00:01;;;;;;;14.52;2.45;;;;;;;5.44;100.00;100680.13;5091085;28;20028;-72
2021/01/19 05:02:40;;;;;;;6.22;1.67;;;;;;;5.53;100.00;100664.63;5086395;28;20043;-72
2021/01/19 05:05:23;;;;;;;18.27;2.58;;;;;;;5.52;100.00;100673.53;5090281;28;20039;-72
2021/01/19 05:08:07;;;;;;;;;;;;;;;5.43;100.00;100662.44;5085365;28;20039;-72
2021/01/19 05:10:36;;;;;;;;;;;;;;;5.48;100.00;100661.31;5090352;28;19912;-72
2021/01/19 05:13:12;;;;;;;10.13;2.03;;;;;;;5.54;100.00;100650.38;5114605;27;19961;-72
2021/01/19 05:15:43;;;;;;;14.50;3.53;;;;;;;5.58;100.00;100643.13;5094822;28;20024;-72
2021/01/19 05:18:10;;;;;;;18.83;3.88;;;;;;;5.58;100.00;100638.66;5076831;28;20028;-72
2021/01/19 05:20:49;;;;;;;10.95;2.20;;;;;;;5.63;100.00;100626.00;5105872;28;20039;-72
2021/01/19 05:23:22;;;;;;;10.02;2.67;;;;;;;5.51;100.00;100623.03;5092351;28;20585;-72
2021/01/19 05:25:59;;;;;;;12.68;3.05;;;;;;;5.55;100.00;100619.31;5091898;28;20035;-71
2021/01/19 05:28:30;;;;;;;15.07;3.45;;;;;;;5.67;100.00;100608.97;5085775;28;20024;-72
2021/01/19 05:30:55;;;;;;;8.45;2.72;;;;;;;5.58;100.00;100605.84;5091997;28;20028;-71
2021/01/19 05:33:21;;;;;;;12.30;3.25;;;;;;;5.53;100.00;100595.41;5089113;28;20028;-71
2021/01/19 05:35:46;;;;;;;17.52;3.13;;;;;;;5.65;100.00;100589.53;5087392;28;20028;-72
2021/01/19 05:38:12;;;;;;;13.65;2.65;;;;;;;5.69;100.00;100583.09;5092672;28;20536;-72
2021/01/19 05:40:44;;;;;;;9.95;3.22;;;;;;;5.62;100.00;100579.00;5091968;28;20111;-71
2021/01/19 05:43:13;;;;;;;14.05;2.63;;;;;;;5.72;100.00;100579.44;5084552;28;20115;-71
2021/01/19 05:45:58;;;;;;;11.25;2.80;;;;;;;5.76;100.00;100572.16;5081186;28;20028;-71
2021/01/19 05:48:36;;;;;;;11.63;3.58;;;;;;;5.65;100.00;100552.25;5090547;28;20043;-72
2021/01/19 05:51:02;;;;;;;13.23;4.15;;;;;;;5.73;100.00;100553.69;5091629;28;20036;-72
2021/01/19 05:53:31;;;;;;;13.85;4.32;;;;;;;5.73;100.00;100533.25;5091928;28;20056;-71
2021/01/19 05:56:01;;;;;;;14.38;3.92;;;;;;;5.72;100.00;100536.84;5088202;28;20085;-71
2021/01/19 05:58:34;;;;;;;7.97;3.08;;;;;;;5.77;100.00;100515.31;5092535;28;20089;-71
2021/01/19 06:01:01;;;;;;;8.57;3.60;;;;;;;5.75;100.00;100520.69;5083095;28;20074;-71
2021/01/19 06:03:30;;;;;;;9.98;3.75;;;;;;;5.86;100.00;100506.91;5090605;28;20111;-71
2021/01/19 06:05:56;;;;;;;12.00;2.83;;;;;;;5.74;100.00;100497.66;5091307;28;20042;-71
2021/01/19 06:08:23;;;;;;;5.45;2.40;;;;;;;5.67;100.00;100491.81;5091281;28;20044;-72
2021/01/19 06:10:49;;;;;;;8.27;2.65;;;;;;;5.69;100.00;100491.69;5077834;28;20028;-71
2021/01/19 06:13:17;;;;;;;9.15;2.72;;;;;;;5.73;100.00;100482.66;5080936;28;20036;-72
2021/01/19 06:15:43;;;;;;;12.95;3.25;;;;;;;5.80;100.00;100486.72;5091567;28;20032;-71
2021/01/19 06:18:08;;;;;;;9.25;2.05;;;;;;;5.87;100.00;100476.63;5075490;28;20089;-71
2021/01/19 06:20:43;;;;;;;10.63;2.83;;;;;;;5.77;100.00;100473.56;5091284;28;20035;-71
2021/01/19 06:23:09;;;;;;;12.55;2.17;;;;;;;5.83;100.00;100459.94;5095184;28;20405;-71
2021/01/19 06:25:36;;;;;;;4.13;2.53;;;;;;;5.83;100.00;100459.09;5088249;28;20032;-71
2021/01/19 06:28:11;;;;;;;12.15;2.00;;;;;;;5.89;100.00;100462.34;5078546;28;20027;-72
2021/01/19 06:30:37;;;;;;;8.15;2.10;;;;;;;5.90;100.00;100455.22;5093809;28;20031;-71
2021/01/19 06:33:03;;;;;;;7.95;2.08;;;;;;;5.84;100.00;100434.19;5078568;28;20044;-73
2021/01/19 06:35:39;;;;;;;3.85;1.75;;;;;;;5.82;100.00;100444.03;5091356;28;20038;-72
2021/01/19 06:38:06;;;;;;;8.23;1.77;;;;;;;5.72;100.00;100435.66;5057819;28;20031;-72
2021/01/19 06:40:34;;;;;;;7.20;1.67;;;;;;;5.84;100.00;100437.72;5090947;28;20488;-71
2021/01/19 06:43:02;;;;;;;5.65;1.48;;;;;;;5.78;100.00;100424.69;5090172;28;20539;-71
2021/01/19 06:45:30;;;;;;;8.10;2.17;;;;;;;5.76;100.00;100423.91;5090594;28;20047;-71
2021/01/19 06:47:56;;;;;;;7.32;2.45;;;;;;;5.74;100.00;100427.59;5089817;28;20031;-75
2021/01/19 06:50:24;;;;;;;5.70;1.58;;;;;;;5.83;100.00;100422.66;5077204;28;20622;-73
2021/01/19 06:52:56;;;;;;;6.80;1.50;;;;;;;5.75;100.00;100411.53;5089615;28;20028;-72
2021/01/19 06:55:23;;;;;;;4.15;1.70;;;;;;;5.81;100.00;100418.34;5076201;28;20409;-72
2021/01/19 06:58:03;;;;;;;5.22;1.55;;;;;;;5.81;100.00;100413.88;5089131;28;20721;-72
2021/01/19 07:00:40;;;;;;;7.30;1.90;;;;;;;5.83;100.00;100409.34;5083402;28;20024;-72
2021/01/19 07:03:23;;;;;;;4.82;1.80;;;;;;;5.88;100.00;100409.16;5090111;28;20027;-72
2021/01/19 07:05:53;;;;;;;5.15;2.22;;;;;;;5.83;100.00;100392.50;5086433;28;20039;-72
2021/01/19 07:08:19;;;;;;;2.72;1.65;;;;;;;5.88;100.00;100393.16;5114545;27;20032;-72
2021/01/19 07:10:52;;;;;;;4.25;1.60;;;;;;;5.86;100.00;100389.72;5079151;28;20149;-72
2021/01/19 07:13:21;;;;;;;8.30;2.47;;;;;;;5.81;100.00;100378.41;5069074;28;20040;-73
2021/01/19 07:16:02;;;;;;;5.95;2.00;;;;;;;5.75;100.00;100360.06;5089472;28;20039;-72
2021/01/19 07:18:44;;;;;;;6.88;1.92;;;;;;;5.81;100.00;100370.41;5074841;28;20035;-73
2021/01/19 07:21:13;;;;;;;4.88;1.90;;;;;;;5.79;100.00;100361.66;5090723;28;20085;-72
2021/01/19 07:23:45;;;;;;;5.35;1.90;;;;;;;5.77;100.00;100363.50;5088490;28;20470;-72
2021/01/19 07:26:37;;;;;;;5.07;1.73;;;;;;;5.75;100.00;100344.09;5074385;28;20028;-72
2021/01/19 07:29:03;;;;;;;6.28;1.92;;;;;;;5.77;100.00;100352.88;5087435;28;20449;-73
2021/01/19 07:31:28;;;;;;;6.55;2.00;;;;;;;5.82;100.00;100340.19;5075670;28;20103;-71
2021/01/19 07:33:58;;;;;;;5.90;1.83;;;;;;;5.80;100.00;100334.09;5082874;28;20039;-72
2021/01/19 07:36:27;;;;;;;14.13;2.58;;;;;;;5.78;100.00;100339.47;5073035;28;20512;-72
2021/01/19 07:38:53;;;;;;;6.90;2.42;;;;;;;5.82;100.00;100318.88;5087285;28;20558;-72
2021/01/19 07:41:26;;;;;;;5.00;2.08;;;;;;;5.68;100.00;100312.44;5070647;28;20064;-72
2021/01/19 07:43:52;;;;;;;6.13;2.58;;;;;;;5.81;100.00;100327.78;5083132;28;20043;-72
2021/01/19 07:46:27;;;;;;;7.38;2.55;;;;;;;5.78;100.00;100293.34;5073359;28;20040;-75
2021/01/19 07:49:06;;;;;;;4.78;2.28;;;;;;;5.79;100.00;100321.69;5081886;28;20097;-73
2021/01/19 07:51:41;;;;;;;6.60;2.88;;;;;;;5.76;100.00;100308.53;5085727;28;20033;-72
2021/01/19 07:54:08;;;;;;;7.57;2.92;;;;;;;5.82;100.00;100297.56;5081844;28;20055;-72
2021/01/19 07:56:33;;;;;;;3.55;2.03;;;;;;;5.76;100.00;100285.44;5070399;28;20032;-72
2021/01/19 07:59:00;;;;;;;5.30;2.50;;;;;;;5.79;100.00;100266.66;5088272;28;20435;-74
2021/01/19 08:01:29;;;;;;;7.63;2.50;;;;;;;5.74;100.00;100273.16;5089368;28;20513;-73
2021/01/19 08:04:06;;;;;;;8.68;2.65;;;;;;;5.82;100.00;100284.25;5085921;28;20036;-72
2021/01/19 08:06:32;;;;;;;5.07;2.30;;;;;;;5.83;100.00;100281.50;5067985;28;20027;-72
2021/01/19 08:09:14;;;;;;;5.20;2.20;;;;;;;5.82;100.00;100269.13;5094620;28;20022;-72
2021/01/19 08:11:41;;;;;;;7.15;2.65;;;;;;;5.85;100.00;100270.78;5091248;28;20032;-72
2021/01/19 08:14:07;;;;;;;7.55;2.28;;;;;;;5.86;100.00;100261.84;5071709;28;20043;-73
2021/01/19 08:16:37;;;;;;;6.85;2.45;;;;;;;5.87;100.00;100268.88;5083259;28;20024;-73
2021/01/19 08:19:10;;;;;;;3.63;1.90;;;;;;;5.92;100.00;100261.56;5066903;28;20039;-72
2021/01/19 08:21:47;;;;;;;10.70;2.35;;;;;;;5.91;100.00;100265.19;5091837;28;20397;-73
2021/01/19 08:24:13;;;;;;;5.38;2.60;;;;;;;5.83;100.00;100251.34;5089814;28;20032;-72
2021/01/19 08:26:39;;;;;;;12.38;2.60;;;;;;;5.75;100.00;100264.19;5093727;28;20111;-72
2021/01/19 08:29:06;;;;;;;7.15;2.13;;;;;;;5.80;100.00;100251.53;5086561;28;20027;-73
2021/01/19 08:31:36;;;;;;;5.00;1.90;;;;;;;5.90;100.00;100248.31;5081436;28;20036;-72
2021/01/19 08:34:16;;;;;;;6.35;1.77;;;;;;;5.89;100.00;100240.41;5068103;28;20512;-73
2021/01/19 08:36:42;;;;;;;5.32;2.10;;;;;;;5.89;100.00;100235.94;5096291;28;20094;-72
2021/01/19 08:39:09;;;;;;;7.40;1.60;;;;;;;5.91;100.00;100243.88;5090294;28;20673;-73
2021/01/19 08:41:42;;;;;;;4.82;1.48;;;;;;;5.99;100.00;100225.66;5077675;28;20024;-74
2021/01/19 08:44:07;;;;;;;4.35;1.70;;;;;;;5.95;100.00;100224.97;5090906;28;20092;-72
2021/01/19 08:46:33;;;;;;;4.18;1.20;;;;;;;5.96;100.00;100223.16;5083723;28;20115;-72
2021/01/19 08:49:06;;;;;;;6.10;1.50;;;;;;;6.05;100.00;100217.31;5084520;28;20428;-72
2021/01/19 08:51:32;;;;;;;5.35;1.40;;;;;;;6.04;100.00;100218.31;5094412;28;20020;-72
2021/01/19 08:53:57;;;;;;;6.50;1.73;;;;;;;6.07;100.00;100218.13;5090132;28;20618;-72
2021/01/19 08:56:25;;;;;;;5.50;1.30;;;;;;;6.04;100.00;100218.31;5084101;28;20501;-72
2021/01/19 08:58:51;;;;;;;2.65;1.10;;;;;;;6.02;100.00;100204.19;5110256;27;20020;-73
2021/01/19 09:01:18;;;;;;;7.57;1.70;;;;;;;6.05;100.00;100198.69;5090719;28;20031;-73
2021/01/19 09:03:57;;;;;;;4.85;1.50;;;;;;;6.05;100.00;100193.34;5092430;28;20032;-75
2021/01/19 09:06:23;;;;;;;2.75;1.50;;;;;;;6.10;100.00;100191.31;5073689;28;20046;-73
2021/01/19 09:08:56;;;;;;;4.63;1.13;;;;;;;6.13;100.00;100207.13;5074664;28;20123;-72
2021/01/19 09:11:28;;;;;;;8.45;1.40;;;;;;;6.14;100.00;100197.34;5080053;28;20036;-73
2021/01/19 09:14:01;;;;;;;8.63;1.27;;;;;;;6.02;100.00;100194.41;5087093;28;20489;-73
2021/01/19 09:16:29;;;;;;;4.70;1.20;;;;;;;6.04;100.00;100191.66;5090916;28;20089;-73
2021/01/19 09:18:56;;;;;;;7.43;1.50;;;;;;;6.12;100.00;100188.56;5086558;28;20036;-73
2021/01/19 09:21:23;;;;;;;2.47;1.35;;;;;;;6.11;100.00;100185.03;5093102;28;20389;-74
2021/01/19 09:23:49;;;;;;;3.92;1.17;;;;;;;6.14;100.00;100216.00;5091162;28;20539;-73
2021/01/19 09:26:14;;;;;;;6.43;1.48;;;;;;;6.15;100.00;100173.28;5090848;28;20031;-73
2021/01/19 09:28:40;;;;;;;3.20;1.20;;;;;;;6.17;100.00;100178.53;5090957;28;20020;-73
2021/01/19 09:31:12;;;;;;;2.22;0.90;;;;;;;6.13;100.00;100168.97;5092397;28;20027;-73
2021/01/19 09:33:39;;;;;;;6.22;1.45;;;;;;;6.18;100.00;100178.44;5086297;28;20115;-73
2021/01/19 09:36:06;;;;;;;3.08;1.23;;;;;;;6.24;100.00;100178.09;5082035;28;20028;-74
2021/01/19 09:38:32;;;;;;;1.92;1.00;;;;;;;6.22;100.00;100181.81;5088307;28;20036;-73
2021/01/19 09:40:58;;;;;;;3.78;1.08;;;;;;;6.22;100.00;100166.69;5084956;28;20616;-73
2021/01/19 09:43:23;;;;;;;3.30;1.42;;;;;;;6.20;100.00;100171.22;5082181;28;20075;-74
2021/01/19 09:45:50;;;;;;;4.15;1.20;;;;;;;6.22;100.00;100169.34;5077607;28;20479;-74
2021/01/19 09:48:18;;;;;;;4.88;1.10;;;;;;;6.30;100.00;100158.22;5075870;28;20559;-73
2021/01/19 09:50:44;;;;;;;2.50;1.10;;;;;;;6.38;100.00;100167.53;5085790;28;20036;-74
2021/01/19 09:53:10;;;;;;;4.50;1.10;;;;;;;6.39;100.00;100166.59;5090970;28;20045;-74
2021/01/19 09:55:37;;;;;;;3.83;1.40;;;;;;;6.46;100.00;100162.63;5096763;28;20036;-74
2021/01/19 09:58:04;;;;;;;4.72;1.95;;;;;;;6.49;100.00;100166.91;5086873;28;20044;-73
2021/01/19 10:00:37;;;;;;;5.95;0.90;;;;;;;6.51;100.00;100167.72;5089965;28;20035;-74
2021/01/19 10:03:20;;;;;;;4.90;1.00;;;;;;;6.48;100.00;100171.38;5091157;28;20024;-75
2021/01/19 10:06:06;;;;;;;1.73;0.90;;;;;;;6.55;100.00;100155.03;5090518;28;20058;-74
2021/01/19 10:08:33;;;;;;;1.58;0.70;;;;;;;6.55;100.00;100155.91;5080115;28;20079;-73
2021/01/19 10:10:59;;;;;;;2.78;1.55;;;;;;;6.63;100.00;100166.16;5084177;28;20363;-73
2021/01/19 10:13:30;;;;;;;3.03;1.20;;;;;;;6.65;100.00;100162.47;5087902;28;20470;-75
2021/01/19 10:16:05;;;;;;;3.03;1.10;;;;;;;6.67;100.00;100159.69;5087915;28;20419;-74
2021/01/19 10:18:32;;;;;;;2.97;1.10;;;;;;;6.57;100.00;100169.16;5080240;28;20059;-73
2021/01/19 10:20:58;;;;;;;5.60;1.00;;;;;;;6.63;100.00;100158.16;5078428;28;20069;-73
2021/01/19 10:23:26;;;;;;;5.20;1.38;;;;;;;6.64;100.00;100149.22;5092396;28;20579;-77
2021/01/19 10:26:11;;;;;;;3.75;1.35;;;;;;;6.57;100.00;100156.69;5091582;28;20031;-73
2021/01/19 10:28:39;;;;;;;3.78;1.20;;;;;;;6.62;100.00;100151.09;5078344;28;20394;-73
2021/01/19 10:31:24;;;;;;;2.78;0.98;;;;;;;6.60;100.00;100169.88;5083633;28;20040;-74
2021/01/19 10:34:00;;;;;;;2.72;1.23;;;;;;;6.63;100.00;100160.81;5095497;28;20024;-73
2021/01/19 10:36:30;;;;;;;1.67;1.20;;;;;;;6.68;100.00;100166.75;5100257;28;20391;-74
2021/01/19 10:39:05;;;;;;;5.40;1.50;;;;;;;6.66;100.00;100168.66;5085953;28;20422;-74
2021/01/19 10:41:31;;;;;;;16.50;6.53;;;;;;;6.64;100.00;100159.88;5083201;28;20036;-74
2021/01/19 10:43:57;;;;;;;73.65;20.17;;;;;;;6.62;100.00;100172.41;5085557;28;20112;-74
2021/01/19 10:46:25;;;;;;;16.55;6.43;;;;;;;6.72;100.00;100168.31;5090538;28;20028;-74
2021/01/19 10:49:14;;;;;;;19.50;7.75;;;;;;;6.76;100.00;100153.84;5088325;28;20028;-73
2021/01/19 10:51:44;;;;;;;46.30;19.27;;;;;;;6.77;100.00;100166.22;5086256;28;20569;-73
2021/01/19 10:54:14;;;;;;;8.82;2.30;;;;;;;6.74;100.00;100171.72;5086133;28;20040;-73
2021/01/19 10:56:41;;;;;;;7.88;4.10;;;;;;;6.77;100.00;100161.75;5084232;28;20294;-73
2021/01/19 10:59:08;;;;;;;9.77;4.38;;;;;;;6.80;100.00;100160.69;5071843;28;20408;-73
2021/01/19 11:01:34;;;;;;;12.38;3.95;;;;;;;6.89;100.00;100155.72;5074487;28;20028;-76
2021/01/19 11:04:00;;;;;;;16.70;7.82;;;;;;;6.93;100.00;100172.38;5089590;28;20023;-73
2021/01/19 11:06:37;;;;;;;10.55;4.50;;;;;;;6.93;100.00;100167.06;5086071;28;20494;-74
2021/01/19 11:09:04;;;;;;;6.53;2.60;;;;;;;6.99;100.00;100149.81;5086515;28;20536;-74
2021/01/19 11:11:31;;;;;;;8.57;3.97;;;;;;;6.98;100.00;100170.31;5087437;28;20731;-73
2021/01/19 11:13:57;;;;;;;5.40;3.40;;;;;;;7.02;100.00;100150.53;5074005;28;20702;-73
2021/01/19 11:16:28;;;;;;;6.50;2.95;;;;;;;7.05;100.00;100166.34;5076071;28;20122;-73
2021/01/19 11:18:53;;;;;;;3.13;1.48;;;;;;;7.07;100.00;100164.44;5071479;28;20035;-74
2021/01/19 11:21:18;;;;;;;3.75;1.40;;;;;;;7.15;100.00;100162.19;5089226;28;20036;-73
2021/01/19 11:23:44;;;;;;;4.88;2.17;;;;;;;7.12;100.00;100162.34;5089365;28;20035;-73
2021/01/19 11:26:09;;;;;;;3.28;2.17;;;;;;;7.14;100.00;100160.47;5089082;28;20394;-73
2021/01/19 11:28:35;;;;;;;1.50;1.10;;;;;;;7.17;100.00;100149.59;5086414;28;20042;-75
2021/01/19 11:31:00;;;;;;;4.38;1.92;;;;;;;7.20;100.00;100154.78;5090474;28;20036;-73
2021/01/19 11:33:26;;;;;;;6.63;1.38;;;;;;;7.25;100.00;100158.03;5087701;28;20020;-73